Portada
METAR-TAF:

METAR-TAF

Aeropuertos :

Lárnaca, Chipre

Aeropuerto Internacional de Lárnaca

latitud: 34-53N, longitud: 033-38E, altitud: 2 m

Observación

El informe se hizo hace 30 minutos, a las 21:30 UTC
Viento 7 kt del norte-noroeste
Temperatura 23°C
Humedad 73%
Presión 1014 hPa
Visibilidad 10 km o más
sin nubes por debajo de 1500 m y sin presencia de cumulonimbus.

METAR: LCLK 232130Z 34007KT CAVOK 23/18 Q1014 NOSIG

Hora: 01:00 (22:00 UTC)

Pronóstico

El informe se hizo hace 4 horas y 30 minutos, a las 17:30 UTC
Pronóstico válido del 23 a las 18 UTC al 24 a las 18 UTC
Viento 10 kt del suroeste
Visibilidad 10 km o más
Escasas nubes a una altura de 2500 ft
Evolucionando progresivamente
del 23 a las 19 UTC al 23 a las 22 UTC
Viento 6 kt del noroeste
Evolucionando progresivamente
del 24 a las 09 UTC al 24 a las 12 UTC
Viento 12 kt del sur-suroeste

TAF: LCLK 231730Z 2318/2418 22010KT 9999 FEW025 BECMG 2319/2322 32006KT BECMG 2409/2412 20012KT

Observaciones y pronósticos meteorológicos de más de 4000 aeropuertos (mensajes METAR y TAF).

Los puntos amarillos y rojos representan las estaciones disponibles.

Ponga el ratón en el punto deseado para ver el nombre de la estación.

Haga clic para ver las observaciones y los pronósticos meteorológicos.

Para cambiar el mapa : haga clic en los botones verdes con una cruz de color negro para hacer un zoom, en el botón verde con un guión para alejar o en las flechas verdes para mapas adyacentes.


METAR-TAF: